sensor_id;sensor_type;location;lat;lon;timestamp;P1;durP1;ratioP1;P2;durP2;ratioP2
18286;SDS011;9269;50.838;12.094;2022-08-25T00:02:20;11.53;;;9.37;;
18286;SDS011;9269;50.838;12.094;2022-08-25T00:04:54;10.00;;;9.03;;
18286;SDS011;9269;50.838;12.094;2022-08-25T00:07:27;9.87;;;8.87;;
18286;SDS011;9269;50.838;12.094;2022-08-25T00:09:57;9.50;;;8.50;;
18286;SDS011;9269;50.838;12.094;2022-08-25T00:12:27;9.30;;;8.40;;
18286;SDS011;9269;50.838;12.094;2022-08-25T00:15:01;9.20;;;8.27;;
18286;SDS011;9269;50.838;12.094;2022-08-25T00:17:35;9.43;;;8.60;;
18286;SDS011;9269;50.838;12.094;2022-08-25T00:20:05;9.83;;;8.90;;
18286;SDS011;9269;50.838;12.094;2022-08-25T00:22:35;11.00;;;9.80;;
18286;SDS011;9269;50.838;12.094;2022-08-25T00:25:07;10.20;;;9.30;;
18286;SDS011;9269;50.838;12.094;2022-08-25T00:27:38;10.10;;;9.17;;
18286;SDS011;9269;50.838;12.094;2022-08-25T00:30:07;10.70;;;9.60;;
18286;SDS011;9269;50.838;12.094;2022-08-25T00:32:41;10.13;;;8.57;;
18286;SDS011;9269;50.838;12.094;2022-08-25T00:35:22;10.83;;;9.83;;
18286;SDS011;9269;50.838;12.094;2022-08-25T00:37:52;10.93;;;9.93;;
18286;SDS011;9269;50.838;12.094;2022-08-25T00:40:23;9.73;;;8.77;;
18286;SDS011;9269;50.838;12.094;2022-08-25T00:42:55;11.67;;;10.20;;
18286;SDS011;9269;50.838;12.094;2022-08-25T00:45:26;10.67;;;9.57;;
18286;SDS011;9269;50.838;12.094;2022-08-25T00:47:58;10.27;;;9.27;;
18286;SDS011;9269;50.838;12.094;2022-08-25T00:50:30;11.20;;;10.13;;
18286;SDS011;9269;50.838;12.094;2022-08-25T00:53:02;11.00;;;9.60;;
18286;SDS011;9269;50.838;12.094;2022-08-25T00:55:32;10.93;;;9.73;;
18286;SDS011;9269;50.838;12.094;2022-08-25T00:58:07;11.27;;;10.07;;
18286;SDS011;9269;50.838;12.094;2022-08-25T01:00:42;10.57;;;9.60;;
18286;SDS011;9269;50.838;12.094;2022-08-25T01:03:13;11.93;;;9.77;;
18286;SDS011;9269;50.838;12.094;2022-08-25T01:05:46;12.70;;;11.37;;
18286;SDS011;9269;50.838;12.094;2022-08-25T01:08:17;12.97;;;11.50;;
18286;SDS011;9269;50.838;12.094;2022-08-25T01:10:48;11.30;;;10.30;;
18286;SDS011;9269;50.838;12.094;2022-08-25T01:13:20;13.87;;;10.40;;
18286;SDS011;9269;50.838;12.094;2022-08-25T01:15:55;12.50;;;10.67;;
18286;SDS011;9269;50.838;12.094;2022-08-25T01:18:25;14.90;;;11.20;;
18286;SDS011;9269;50.838;12.094;2022-08-25T01:21:15;12.77;;;11.10;;
18286;SDS011;9269;50.838;12.094;2022-08-25T01:23:53;16.83;;;12.10;;
18286;SDS011;9269;50.838;12.094;2022-08-25T01:26:25;19.00;;;13.20;;
18286;SDS011;9269;50.838;12.094;2022-08-25T01:28:58;23.37;;;14.97;;
18286;SDS011;9269;50.838;12.094;2022-08-25T01:31:47;19.07;;;14.67;;
18286;SDS011;9269;50.838;12.094;2022-08-25T01:34:19;18.87;;;15.37;;
18286;SDS011;9269;50.838;12.094;2022-08-25T01:36:58;16.60;;;14.47;;
18286;SDS011;9269;50.838;12.094;2022-08-25T01:39:33;16.97;;;13.80;;
18286;SDS011;9269;50.838;12.094;2022-08-25T01:42:28;14.83;;;13.30;;
18286;SDS011;9269;50.838;12.094;2022-08-25T01:45:24;16.13;;;12.57;;
18286;SDS011;9269;50.838;12.094;2022-08-25T01:48:14;12.20;;;11.10;;
18286;SDS011;9269;50.838;12.094;2022-08-25T01:51:02;13.77;;;12.30;;
18286;SDS011;9269;50.838;12.094;2022-08-25T01:53:33;14.63;;;11.37;;
18286;SDS011;9269;50.838;12.094;2022-08-25T01:56:06;11.27;;;10.27;;
18286;SDS011;9269;50.838;12.094;2022-08-25T01:58:38;12.33;;;10.60;;
18286;SDS011;9269;50.838;12.094;2022-08-25T02:01:09;11.47;;;10.37;;
18286;SDS011;9269;50.838;12.094;2022-08-25T02:03:45;11.40;;;10.23;;
18286;SDS011;9269;50.838;12.094;2022-08-25T02:06:17;12.07;;;9.80;;
18286;SDS011;9269;50.838;12.094;2022-08-25T02:08:57;11.80;;;10.60;;
18286;SDS011;9269;50.838;12.094;2022-08-25T02:11:28;11.10;;;9.93;;
18286;SDS011;9269;50.838;12.094;2022-08-25T02:13:57;10.87;;;9.77;;
18286;SDS011;9269;50.838;12.094;2022-08-25T02:16:27;12.43;;;11.10;;
18286;SDS011;9269;50.838;12.094;2022-08-25T02:18:57;10.80;;;9.70;;
18286;SDS011;9269;50.838;12.094;2022-08-25T02:21:26;12.00;;;10.90;;
18286;SDS011;9269;50.838;12.094;2022-08-25T02:23:56;12.33;;;11.27;;
18286;SDS011;9269;50.838;12.094;2022-08-25T02:26:26;11.80;;;10.60;;
18286;SDS011;9269;50.838;12.094;2022-08-25T02:28:54;12.37;;;11.17;;
18286;SDS011;9269;50.838;12.094;2022-08-25T02:31:23;11.70;;;10.70;;
18286;SDS011;9269;50.838;12.094;2022-08-25T02:33:53;12.47;;;11.27;;
18286;SDS011;9269;50.838;12.094;2022-08-25T02:36:22;12.20;;;11.03;;
18286;SDS011;9269;50.838;12.094;2022-08-25T02:38:51;12.13;;;11.03;;
18286;SDS011;9269;50.838;12.094;2022-08-25T02:41:21;12.23;;;11.00;;
18286;SDS011;9269;50.838;12.094;2022-08-25T02:43:57;11.70;;;10.57;;
18286;SDS011;9269;50.838;12.094;2022-08-25T02:46:27;11.37;;;10.30;;
18286;SDS011;9269;50.838;12.094;2022-08-25T02:48:56;11.30;;;10.23;;
18286;SDS011;9269;50.838;12.094;2022-08-25T02:51:25;13.50;;;11.37;;
18286;SDS011;9269;50.838;12.094;2022-08-25T02:53:56;12.63;;;11.60;;
18286;SDS011;9269;50.838;12.094;2022-08-25T02:56:26;11.30;;;10.30;;
18286;SDS011;9269;50.838;12.094;2022-08-25T02:58:55;12.70;;;11.57;;
18286;SDS011;9269;50.838;12.094;2022-08-25T03:01:23;13.27;;;11.97;;
18286;SDS011;9269;50.838;12.094;2022-08-25T03:03:54;14.83;;;11.07;;
18286;SDS011;9269;50.838;12.094;2022-08-25T03:06:23;12.87;;;11.67;;
18286;SDS011;9269;50.838;12.094;2022-08-25T03:08:53;11.30;;;10.10;;
18286;SDS011;9269;50.838;12.094;2022-08-25T03:11:22;11.43;;;10.33;;
18286;SDS011;9269;50.838;12.094;2022-08-25T03:13:53;13.23;;;10.47;;
18286;SDS011;9269;50.838;12.094;2022-08-25T03:16:22;13.77;;;11.87;;
18286;SDS011;9269;50.838;12.094;2022-08-25T03:18:53;12.63;;;11.37;;
18286;SDS011;9269;50.838;12.094;2022-08-25T03:21:23;13.80;;;11.70;;
18286;SDS011;9269;50.838;12.094;2022-08-25T03:23:52;12.67;;;11.13;;
18286;SDS011;9269;50.838;12.094;2022-08-25T03:26:21;12.30;;;11.00;;
18286;SDS011;9269;50.838;12.094;2022-08-25T03:29:09;12.63;;;10.50;;
18286;SDS011;9269;50.838;12.094;2022-08-25T03:31:37;11.70;;;10.47;;
18286;SDS011;9269;50.838;12.094;2022-08-25T03:34:06;12.80;;;11.57;;
18286;SDS011;9269;50.838;12.094;2022-08-25T03:36:35;12.73;;;11.43;;
18286;SDS011;9269;50.838;12.094;2022-08-25T03:39:04;13.03;;;11.73;;
18286;SDS011;9269;50.838;12.094;2022-08-25T03:41:34;13.17;;;11.97;;
18286;SDS011;9269;50.838;12.094;2022-08-25T03:44:03;12.37;;;11.27;;
18286;SDS011;9269;50.838;12.094;2022-08-25T03:46:36;13.07;;;11.73;;
18286;SDS011;9269;50.838;12.094;2022-08-25T03:49:06;12.53;;;11.23;;
18286;SDS011;9269;50.838;12.094;2022-08-25T03:51:38;12.27;;;11.07;;
18286;SDS011;9269;50.838;12.094;2022-08-25T03:54:08;11.40;;;10.30;;
18286;SDS011;9269;50.838;12.094;2022-08-25T03:56:38;11.03;;;10.03;;
18286;SDS011;9269;50.838;12.094;2022-08-25T03:59:06;10.87;;;10.00;;
18286;SDS011;9269;50.838;12.094;2022-08-25T04:01:38;10.97;;;9.90;;
18286;SDS011;9269;50.838;12.094;2022-08-25T04:04:08;11.70;;;10.50;;
18286;SDS011;9269;50.838;12.094;2022-08-25T04:06:38;12.60;;;11.23;;
18286;SDS011;9269;50.838;12.094;2022-08-25T04:09:07;11.47;;;10.43;;
18286;SDS011;9269;50.838;12.094;2022-08-25T04:11:36;11.20;;;10.20;;
18286;SDS011;9269;50.838;12.094;2022-08-25T04:14:08;12.47;;;11.27;;
18286;SDS011;9269;50.838;12.094;2022-08-25T04:16:43;12.40;;;11.17;;
18286;SDS011;9269;50.838;12.094;2022-08-25T04:19:12;11.00;;;10.10;;
18286;SDS011;9269;50.838;12.094;2022-08-25T04:21:41;12.30;;;11.20;;
18286;SDS011;9269;50.838;12.094;2022-08-25T04:24:10;13.10;;;11.83;;
18286;SDS011;9269;50.838;12.094;2022-08-25T04:26:40;12.73;;;11.43;;
18286;SDS011;9269;50.838;12.094;2022-08-25T04:29:11;13.53;;;12.23;;
18286;SDS011;9269;50.838;12.094;2022-08-25T04:31:41;13.87;;;12.50;;
18286;SDS011;9269;50.838;12.094;2022-08-25T04:34:14;14.80;;;11.73;;
18286;SDS011;9269;50.838;12.094;2022-08-25T04:36:57;13.67;;;12.47;;
18286;SDS011;9269;50.838;12.094;2022-08-25T04:39:27;13.07;;;11.77;;
18286;SDS011;9269;50.838;12.094;2022-08-25T04:41:56;12.47;;;11.27;;
18286;SDS011;9269;50.838;12.094;2022-08-25T04:44:26;12.03;;;10.90;;
18286;SDS011;9269;50.838;12.094;2022-08-25T04:46:57;12.33;;;11.23;;
18286;SDS011;9269;50.838;12.094;2022-08-25T04:49:30;11.50;;;10.40;;
18286;SDS011;9269;50.838;12.094;2022-08-25T04:51:59;11.10;;;10.00;;
18286;SDS011;9269;50.838;12.094;2022-08-25T04:54:29;11.87;;;10.87;;
18286;SDS011;9269;50.838;12.094;2022-08-25T04:57:03;11.97;;;10.77;;
18286;SDS011;9269;50.838;12.094;2022-08-25T04:59:32;11.23;;;10.13;;
18286;SDS011;9269;50.838;12.094;2022-08-25T05:02:02;11.70;;;10.60;;
18286;SDS011;9269;50.838;12.094;2022-08-25T05:04:33;10.80;;;9.77;;
18286;SDS011;9269;50.838;12.094;2022-08-25T05:07:03;10.97;;;9.87;;
18286;SDS011;9269;50.838;12.094;2022-08-25T05:09:31;11.37;;;10.27;;
18286;SDS011;9269;50.838;12.094;2022-08-25T05:12:01;11.70;;;10.60;;
18286;SDS011;9269;50.838;12.094;2022-08-25T05:14:29;11.03;;;10.03;;
18286;SDS011;9269;50.838;12.094;2022-08-25T05:16:59;14.63;;;13.37;;
18286;SDS011;9269;50.838;12.094;2022-08-25T05:19:29;12.07;;;10.97;;
18286;SDS011;9269;50.838;12.094;2022-08-25T05:21:57;14.30;;;12.97;;
18286;SDS011;9269;50.838;12.094;2022-08-25T05:24:27;13.67;;;12.37;;
18286;SDS011;9269;50.838;12.094;2022-08-25T05:26:56;11.87;;;10.77;;
18286;SDS011;9269;50.838;12.094;2022-08-25T05:29:24;13.30;;;12.00;;
18286;SDS011;9269;50.838;12.094;2022-08-25T05:31:53;12.30;;;11.23;;
18286;SDS011;9269;50.838;12.094;2022-08-25T05:34:21;12.60;;;11.40;;
18286;SDS011;9269;50.838;12.094;2022-08-25T05:36:52;12.90;;;11.80;;
18286;SDS011;9269;50.838;12.094;2022-08-25T05:39:23;14.33;;;12.97;;
18286;SDS011;9269;50.838;12.094;2022-08-25T05:41:52;12.83;;;11.67;;
18286;SDS011;9269;50.838;12.094;2022-08-25T05:44:20;13.33;;;12.03;;
18286;SDS011;9269;50.838;12.094;2022-08-25T05:46:49;12.47;;;11.27;;
18286;SDS011;9269;50.838;12.094;2022-08-25T05:49:18;13.40;;;12.10;;
18286;SDS011;9269;50.838;12.094;2022-08-25T05:51:46;12.53;;;11.33;;
18286;SDS011;9269;50.838;12.094;2022-08-25T05:54:16;12.60;;;11.40;;
18286;SDS011;9269;50.838;12.094;2022-08-25T05:56:44;12.40;;;11.20;;
18286;SDS011;9269;50.838;12.094;2022-08-25T05:59:12;12.30;;;11.20;;
18286;SDS011;9269;50.838;12.094;2022-08-25T06:01:41;13.10;;;11.83;;
18286;SDS011;9269;50.838;12.094;2022-08-25T06:04:41;13.23;;;11.23;;
18286;SDS011;9269;50.838;12.094;2022-08-25T06:07:10;13.83;;;12.43;;
18286;SDS011;9269;50.838;12.094;2022-08-25T06:09:40;13.33;;;12.17;;
18286;SDS011;9269;50.838;12.094;2022-08-25T06:12:11;13.00;;;11.87;;
18286;SDS011;9269;50.838;12.094;2022-08-25T06:14:40;11.70;;;10.63;;
18286;SDS011;9269;50.838;12.094;2022-08-25T06:17:08;12.70;;;11.60;;
18286;SDS011;9269;50.838;12.094;2022-08-25T06:19:36;12.90;;;11.60;;
18286;SDS011;9269;50.838;12.094;2022-08-25T06:22:07;12.90;;;11.47;;
18286;SDS011;9269;50.838;12.094;2022-08-25T06:24:35;11.83;;;10.63;;
18286;SDS011;9269;50.838;12.094;2022-08-25T06:27:05;12.10;;;11.00;;
18286;SDS011;9269;50.838;12.094;2022-08-25T06:29:33;12.43;;;11.23;;
18286;SDS011;9269;50.838;12.094;2022-08-25T06:32:03;15.13;;;13.50;;
18286;SDS011;9269;50.838;12.094;2022-08-25T06:34:32;14.30;;;12.87;;
18286;SDS011;9269;50.838;12.094;2022-08-25T06:37:00;18.00;;;16.23;;
18286;SDS011;9269;50.838;12.094;2022-08-25T06:39:29;16.90;;;15.37;;
18286;SDS011;9269;50.838;12.094;2022-08-25T06:41:57;14.13;;;12.90;;
18286;SDS011;9269;50.838;12.094;2022-08-25T06:44:27;17.60;;;15.93;;
18286;SDS011;9269;50.838;12.094;2022-08-25T06:46:55;17.80;;;16.10;;
18286;SDS011;9269;50.838;12.094;2022-08-25T06:49:24;18.27;;;16.43;;
18286;SDS011;9269;50.838;12.094;2022-08-25T06:52:00;17.23;;;15.63;;
18286;SDS011;9269;50.838;12.094;2022-08-25T06:54:28;16.33;;;14.77;;
18286;SDS011;9269;50.838;12.094;2022-08-25T06:56:56;20.07;;;18.27;;
18286;SDS011;9269;50.838;12.094;2022-08-25T06:59:26;18.00;;;16.23;;
18286;SDS011;9269;50.838;12.094;2022-08-25T07:01:58;17.00;;;15.37;;
18286;SDS011;9269;50.838;12.094;2022-08-25T07:04:28;17.40;;;15.80;;
18286;SDS011;9269;50.838;12.094;2022-08-25T07:06:57;17.07;;;15.50;;
18286;SDS011;9269;50.838;12.094;2022-08-25T07:09:25;24.87;;;22.40;;
18286;SDS011;9269;50.838;12.094;2022-08-25T07:11:54;20.03;;;18.13;;
18286;SDS011;9269;50.838;12.094;2022-08-25T07:14:23;23.83;;;21.47;;
18286;SDS011;9269;50.838;12.094;2022-08-25T07:16:52;26.73;;;23.90;;
18286;SDS011;9269;50.838;12.094;2022-08-25T07:19:21;25.33;;;22.73;;
18286;SDS011;9269;50.838;12.094;2022-08-25T07:21:50;26.33;;;23.83;;
18286;SDS011;9269;50.838;12.094;2022-08-25T07:24:20;25.20;;;22.60;;
18286;SDS011;9269;50.838;12.094;2022-08-25T07:26:49;25.10;;;22.20;;
18286;SDS011;9269;50.838;12.094;2022-08-25T07:29:19;24.57;;;21.97;;
18286;SDS011;9269;50.838;12.094;2022-08-25T07:32:00;23.43;;;21.13;;
18286;SDS011;9269;50.838;12.094;2022-08-25T07:34:29;19.73;;;17.90;;
18286;SDS011;9269;50.838;12.094;2022-08-25T07:37:18;28.00;;;25.03;;
18286;SDS011;9269;50.838;12.094;2022-08-25T07:40:09;21.30;;;19.07;;
18286;SDS011;9269;50.838;12.094;2022-08-25T07:42:40;25.57;;;22.87;;
18286;SDS011;9269;50.838;12.094;2022-08-25T07:45:09;21.30;;;19.07;;
18286;SDS011;9269;50.838;12.094;2022-08-25T07:47:39;23.53;;;21.23;;
18286;SDS011;9269;50.838;12.094;2022-08-25T07:50:09;22.33;;;20.23;;
18286;SDS011;9269;50.838;12.094;2022-08-25T07:52:40;24.30;;;21.83;;
18286;SDS011;9269;50.838;12.094;2022-08-25T07:55:08;23.03;;;20.83;;
18286;SDS011;9269;50.838;12.094;2022-08-25T07:57:38;23.03;;;20.73;;
18286;SDS011;9269;50.838;12.094;2022-08-25T08:00:07;20.83;;;18.63;;
18286;SDS011;9269;50.838;12.094;2022-08-25T08:02:36;21.50;;;19.60;;
18286;SDS011;9269;50.838;12.094;2022-08-25T08:05:07;25.47;;;22.97;;
18286;SDS011;9269;50.838;12.094;2022-08-25T08:07:36;20.80;;;18.70;;
18286;SDS011;9269;50.838;12.094;2022-08-25T08:10:10;22.43;;;20.13;;
18286;SDS011;9269;50.838;12.094;2022-08-25T08:13:02;23.53;;;21.23;;
18286;SDS011;9269;50.838;12.094;2022-08-25T08:15:33;19.20;;;17.40;;
18286;SDS011;9269;50.838;12.094;2022-08-25T08:18:02;22.47;;;20.27;;
18286;SDS011;9269;50.838;12.094;2022-08-25T08:20:34;20.47;;;18.53;;
18286;SDS011;9269;50.838;12.094;2022-08-25T08:23:09;21.20;;;19.20;;
18286;SDS011;9269;50.838;12.094;2022-08-25T08:25:37;24.27;;;21.87;;
18286;SDS011;9269;50.838;12.094;2022-08-25T08:28:06;20.47;;;18.47;;
18286;SDS011;9269;50.838;12.094;2022-08-25T08:30:36;21.57;;;19.37;;
18286;SDS011;9269;50.838;12.094;2022-08-25T08:33:04;23.47;;;21.03;;
18286;SDS011;9269;50.838;12.094;2022-08-25T08:35:39;21.73;;;19.57;;
18286;SDS011;9269;50.838;12.094;2022-08-25T08:38:08;20.60;;;18.70;;
18286;SDS011;9269;50.838;12.094;2022-08-25T08:40:47;20.17;;;18.17;;
18286;SDS011;9269;50.838;12.094;2022-08-25T08:43:40;17.77;;;16.00;;
18286;SDS011;9269;50.838;12.094;2022-08-25T08:46:10;20.40;;;18.27;;
18286;SDS011;9269;50.838;12.094;2022-08-25T08:48:43;18.53;;;16.53;;
18286;SDS011;9269;50.838;12.094;2022-08-25T08:51:24;19.50;;;17.30;;
18286;SDS011;9269;50.838;12.094;2022-08-25T08:53:59;22.73;;;20.70;;
18286;SDS011;9269;50.838;12.094;2022-08-25T08:56:41;21.07;;;18.80;;
18286;SDS011;9269;50.838;12.094;2022-08-25T08:59:15;22.77;;;20.53;;
18286;SDS011;9269;50.838;12.094;2022-08-25T09:01:47;23.40;;;21.00;;
18286;SDS011;9269;50.838;12.094;2022-08-25T09:04:24;22.33;;;20.10;;
18286;SDS011;9269;50.838;12.094;2022-08-25T09:06:58;21.37;;;19.17;;
18286;SDS011;9269;50.838;12.094;2022-08-25T09:09:30;19.20;;;17.30;;
18286;SDS011;9269;50.838;12.094;2022-08-25T09:12:05;22.30;;;20.23;;
18286;SDS011;9269;50.838;12.094;2022-08-25T09:14:43;21.57;;;19.57;;
18286;SDS011;9269;50.838;12.094;2022-08-25T09:17:34;21.40;;;19.30;;
18286;SDS011;9269;50.838;12.094;2022-08-25T09:20:27;21.10;;;19.00;;
18286;SDS011;9269;50.838;12.094;2022-08-25T09:23:08;20.13;;;18.33;;
18286;SDS011;9269;50.838;12.094;2022-08-25T09:25:49;18.93;;;16.97;;
18286;SDS011;9269;50.838;12.094;2022-08-25T09:28:25;20.73;;;18.73;;
18286;SDS011;9269;50.838;12.094;2022-08-25T09:30:58;20.37;;;18.40;;
18286;SDS011;9269;50.838;12.094;2022-08-25T09:33:30;18.53;;;16.83;;
18286;SDS011;9269;50.838;12.094;2022-08-25T09:36:01;18.83;;;16.93;;
18286;SDS011;9269;50.838;12.094;2022-08-25T09:38:35;16.77;;;15.10;;
18286;SDS011;9269;50.838;12.094;2022-08-25T09:41:05;15.97;;;14.37;;
18286;SDS011;9269;50.838;12.094;2022-08-25T09:43:36;16.30;;;14.83;;
18286;SDS011;9269;50.838;12.094;2022-08-25T09:46:09;17.43;;;15.80;;
18286;SDS011;9269;50.838;12.094;2022-08-25T09:48:43;16.97;;;15.40;;
18286;SDS011;9269;50.838;12.094;2022-08-25T09:51:23;16.00;;;14.43;;
18286;SDS011;9269;50.838;12.094;2022-08-25T09:53:59;16.40;;;14.80;;
18286;SDS011;9269;50.838;12.094;2022-08-25T09:56:45;15.53;;;14.03;;
18286;SDS011;9269;50.838;12.094;2022-08-25T09:59:17;15.20;;;13.90;;
18286;SDS011;9269;50.838;12.094;2022-08-25T10:02:02;15.30;;;13.90;;
18286;SDS011;9269;50.838;12.094;2022-08-25T10:04:33;15.90;;;14.40;;
18286;SDS011;9269;50.838;12.094;2022-08-25T10:07:04;15.60;;;14.10;;
18286;SDS011;9269;50.838;12.094;2022-08-25T10:09:51;13.23;;;12.10;;
18286;SDS011;9269;50.838;12.094;2022-08-25T10:12:34;15.60;;;14.20;;
18286;SDS011;9269;50.838;12.094;2022-08-25T10:15:14;15.40;;;14.00;;
18286;SDS011;9269;50.838;12.094;2022-08-25T10:17:56;15.70;;;14.17;;
18286;SDS011;9269;50.838;12.094;2022-08-25T10:21:01;14.30;;;12.30;;
18286;SDS011;9269;50.838;12.094;2022-08-25T10:23:34;15.33;;;13.83;;
18286;SDS011;9269;50.838;12.094;2022-08-25T10:26:13;14.93;;;13.40;;
18286;SDS011;9269;50.838;12.094;2022-08-25T10:28:51;15.10;;;13.70;;
18286;SDS011;9269;50.838;12.094;2022-08-25T10:31:30;14.80;;;13.50;;
18286;SDS011;9269;50.838;12.094;2022-08-25T10:34:11;15.07;;;13.53;;
18286;SDS011;9269;50.838;12.094;2022-08-25T10:36:52;16.70;;;13.67;;
18286;SDS011;9269;50.838;12.094;2022-08-25T10:39:33;14.37;;;12.93;;
18286;SDS011;9269;50.838;12.094;2022-08-25T10:42:10;14.13;;;12.80;;
18286;SDS011;9269;50.838;12.094;2022-08-25T10:44:55;15.23;;;13.73;;
18286;SDS011;9269;50.838;12.094;2022-08-25T10:48:11;13.67;;;12.37;;
18286;SDS011;9269;50.838;12.094;2022-08-25T10:51:05;14.57;;;13.20;;
18286;SDS011;9269;50.838;12.094;2022-08-25T10:53:47;14.07;;;12.60;;
18286;SDS011;9269;50.838;12.094;2022-08-25T10:56:23;13.97;;;12.77;;
18286;SDS011;9269;50.838;12.094;2022-08-25T10:59:04;13.83;;;12.53;;
18286;SDS011;9269;50.838;12.094;2022-08-25T11:02:01;13.60;;;12.27;;
18286;SDS011;9269;50.838;12.094;2022-08-25T11:04:56;12.20;;;11.00;;
18286;SDS011;9269;50.838;12.094;2022-08-25T11:07:27;13.50;;;12.17;;
18286;SDS011;9269;50.838;12.094;2022-08-25T11:10:02;11.80;;;10.70;;
18286;SDS011;9269;50.838;12.094;2022-08-25T11:12:37;11.73;;;10.50;;
18286;SDS011;9269;50.838;12.094;2022-08-25T11:15:11;12.83;;;11.67;;
18286;SDS011;9269;50.838;12.094;2022-08-25T11:17:45;13.17;;;11.73;;
18286;SDS011;9269;50.838;12.094;2022-08-25T11:20:19;12.40;;;11.37;;
18286;SDS011;9269;50.838;12.094;2022-08-25T11:22:55;12.80;;;11.50;;
18286;SDS011;9269;50.838;12.094;2022-08-25T11:25:34;12.30;;;11.10;;
18286;SDS011;9269;50.838;12.094;2022-08-25T11:28:08;12.37;;;11.27;;
18286;SDS011;9269;50.838;12.094;2022-08-25T11:30:43;12.53;;;11.33;;
18286;SDS011;9269;50.838;12.094;2022-08-25T11:33:13;12.30;;;11.10;;
18286;SDS011;9269;50.838;12.094;2022-08-25T11:35:46;11.73;;;10.53;;
18286;SDS011;9269;50.838;12.094;2022-08-25T11:38:24;12.43;;;11.33;;
18286;SDS011;9269;50.838;12.094;2022-08-25T11:41:06;12.93;;;11.80;;
18286;SDS011;9269;50.838;12.094;2022-08-25T11:43:47;13.37;;;12.23;;
18286;SDS011;9269;50.838;12.094;2022-08-25T11:46:34;13.20;;;11.97;;
18286;SDS011;9269;50.838;12.094;2022-08-25T11:49:18;12.77;;;11.47;;
18286;SDS011;9269;50.838;12.094;2022-08-25T11:52:05;13.27;;;11.97;;
18286;SDS011;9269;50.838;12.094;2022-08-25T11:55:04;13.13;;;11.67;;
18286;SDS011;9269;50.838;12.094;2022-08-25T11:57:35;12.97;;;11.67;;
18286;SDS011;9269;50.838;12.094;2022-08-25T12:00:06;12.80;;;11.60;;
18286;SDS011;9269;50.838;12.094;2022-08-25T12:02:41;12.53;;;11.30;;
18286;SDS011;9269;50.838;12.094;2022-08-25T12:08:16;12.03;;;10.83;;
18286;SDS011;9269;50.838;12.094;2022-08-25T12:14:36;12.17;;;10.90;;
18286;SDS011;9269;50.838;12.094;2022-08-25T12:17:22;13.47;;;10.80;;
18286;SDS011;9269;50.838;12.094;2022-08-25T12:19:55;12.03;;;10.73;;
18286;SDS011;9269;50.838;12.094;2022-08-25T12:22:52;11.80;;;10.60;;
18286;SDS011;9269;50.838;12.094;2022-08-25T12:25:28;12.10;;;10.87;;
18286;SDS011;9269;50.838;12.094;2022-08-25T12:28:03;11.67;;;10.50;;
18286;SDS011;9269;50.838;12.094;2022-08-25T12:30:41;16.37;;;11.20;;
18286;SDS011;9269;50.838;12.094;2022-08-25T12:33:19;12.97;;;11.43;;
18286;SDS011;9269;50.838;12.094;2022-08-25T12:36:00;13.67;;;10.10;;
18286;SDS011;9269;50.838;12.094;2022-08-25T12:38:32;14.13;;;10.60;;
18286;SDS011;9269;50.838;12.094;2022-08-25T12:41:17;16.87;;;11.10;;
18286;SDS011;9269;50.838;12.094;2022-08-25T12:43:50;11.50;;;10.13;;
18286;SDS011;9269;50.838;12.094;2022-08-25T12:46:35;12.43;;;9.93;;
18286;SDS011;9269;50.838;12.094;2022-08-25T12:49:11;13.37;;;10.37;;
18286;SDS011;9269;50.838;12.094;2022-08-25T12:51:56;16.10;;;10.13;;
18286;SDS011;9269;50.838;12.094;2022-08-25T12:54:35;13.23;;;9.50;;
18286;SDS011;9269;50.838;12.094;2022-08-25T12:57:21;15.33;;;9.73;;
18286;SDS011;9269;50.838;12.094;2022-08-25T12:59:56;13.10;;;9.63;;
18286;SDS011;9269;50.838;12.094;2022-08-25T13:05:39;13.07;;;9.00;;
18286;SDS011;9269;50.838;12.094;2022-08-25T13:08:46;12.87;;;8.63;;
18286;SDS011;9269;50.838;12.094;2022-08-25T13:11:37;11.73;;;8.50;;
18286;SDS011;9269;50.838;12.094;2022-08-25T13:14:15;12.10;;;8.80;;
18286;SDS011;9269;50.838;12.094;2022-08-25T13:16:51;12.33;;;8.67;;
18286;SDS011;9269;50.838;12.094;2022-08-25T13:19:21;13.77;;;8.57;;
18286;SDS011;9269;50.838;12.094;2022-08-25T13:21:51;14.83;;;8.17;;
18286;SDS011;9269;50.838;12.094;2022-08-25T13:24:24;13.57;;;8.23;;
18286;SDS011;9269;50.838;12.094;2022-08-25T13:26:55;12.77;;;8.83;;
18286;SDS011;9269;50.838;12.094;2022-08-25T13:29:27;13.73;;;8.90;;
18286;SDS011;9269;50.838;12.094;2022-08-25T13:32:07;16.00;;;8.77;;
18286;SDS011;9269;50.838;12.094;2022-08-25T13:34:40;14.83;;;8.10;;
18286;SDS011;9269;50.838;12.094;2022-08-25T13:37:14;13.00;;;7.70;;
18286;SDS011;9269;50.838;12.094;2022-08-25T13:40:07;13.83;;;8.30;;
18286;SDS011;9269;50.838;12.094;2022-08-25T13:42:38;14.53;;;8.30;;
18286;SDS011;9269;50.838;12.094;2022-08-25T13:45:10;15.63;;;8.93;;
18286;SDS011;9269;50.838;12.094;2022-08-25T13:47:43;15.37;;;8.00;;
18286;SDS011;9269;50.838;12.094;2022-08-25T13:50:16;18.17;;;8.77;;
18286;SDS011;9269;50.838;12.094;2022-08-25T13:52:49;17.27;;;7.93;;
18286;SDS011;9269;50.838;12.094;2022-08-25T13:55:23;12.50;;;8.00;;
18286;SDS011;9269;50.838;12.094;2022-08-25T13:57:55;11.90;;;8.77;;
18286;SDS011;9269;50.838;12.094;2022-08-25T14:00:26;15.73;;;7.97;;
18286;SDS011;9269;50.838;12.094;2022-08-25T14:02:58;13.93;;;7.77;;
18286;SDS011;9269;50.838;12.094;2022-08-25T14:05:36;14.93;;;8.17;;
18286;SDS011;9269;50.838;12.094;2022-08-25T14:11:04;18.83;;;8.40;;
18286;SDS011;9269;50.838;12.094;2022-08-25T14:13:41;14.53;;;7.57;;
18286;SDS011;9269;50.838;12.094;2022-08-25T14:16:11;19.23;;;8.20;;
18286;SDS011;9269;50.838;12.094;2022-08-25T14:18:46;17.37;;;8.53;;
18286;SDS011;9269;50.838;12.094;2022-08-25T14:21:17;14.37;;;7.90;;
18286;SDS011;9269;50.838;12.094;2022-08-25T14:23:49;17.70;;;7.90;;
18286;SDS011;9269;50.838;12.094;2022-08-25T14:26:20;12.37;;;6.80;;
18286;SDS011;9269;50.838;12.094;2022-08-25T14:28:48;11.53;;;7.07;;
18286;SDS011;9269;50.838;12.094;2022-08-25T14:31:18;15.37;;;8.03;;
18286;SDS011;9269;50.838;12.094;2022-08-25T14:33:57;16.33;;;7.80;;
18286;SDS011;9269;50.838;12.094;2022-08-25T14:36:28;22.67;;;7.67;;
18286;SDS011;9269;50.838;12.094;2022-08-25T14:38:58;13.90;;;7.10;;
18286;SDS011;9269;50.838;12.094;2022-08-25T14:41:36;14.20;;;8.13;;
18286;SDS011;9269;50.838;12.094;2022-08-25T14:44:07;17.00;;;7.87;;
18286;SDS011;9269;50.838;12.094;2022-08-25T14:46:37;16.27;;;8.30;;
18286;SDS011;9269;50.838;12.094;2022-08-25T14:49:09;16.77;;;8.43;;
18286;SDS011;9269;50.838;12.094;2022-08-25T14:51:39;14.43;;;7.80;;
18286;SDS011;9269;50.838;12.094;2022-08-25T14:54:10;17.13;;;8.10;;
18286;SDS011;9269;50.838;12.094;2022-08-25T14:56:42;15.20;;;7.60;;
18286;SDS011;9269;50.838;12.094;2022-08-25T14:59:11;15.07;;;7.20;;
18286;SDS011;9269;50.838;12.094;2022-08-25T15:01:40;19.47;;;8.30;;
18286;SDS011;9269;50.838;12.094;2022-08-25T15:04:10;16.63;;;7.77;;
18286;SDS011;9269;50.838;12.094;2022-08-25T15:06:41;18.27;;;8.13;;
18286;SDS011;9269;50.838;12.094;2022-08-25T15:09:10;15.97;;;7.60;;
18286;SDS011;9269;50.838;12.094;2022-08-25T15:11:44;15.63;;;8.20;;
18286;SDS011;9269;50.838;12.094;2022-08-25T15:14:17;15.13;;;7.87;;
18286;SDS011;9269;50.838;12.094;2022-08-25T15:16:58;15.27;;;7.40;;
18286;SDS011;9269;50.838;12.094;2022-08-25T15:19:29;13.67;;;7.50;;